Morgenster — PHMY — position and weather

sailwx.info

Track history (hours):
 
Tides and Currents Weather Stations Pressure Air Temp Water Temp Dewpoint Dewpoint Depression Visibility Wind Speed Wind Dir Waves Ship Positions

Morgenster

Last reported at 2018-Aug-14 06:38 UTC. Time now 2018-Aug-14 07:05 UTC.
Position N 53°14' E 004°46'.

Length 38 m; draft 2.4 m.

Type: Sailing vessel. MMSI: 245136000.

Date/timePositionNaut miles runAvg speedWind from/ knotsBaromVisibWave heightAir tempDewpointWater temp
2018-Aug-14 06:38N 53°14' E 004°46'1 6.6
2018-Aug-14 06:29N 53°15' E 004°47'3 6.4
2018-Aug-14 06:00N 53°17' E 004°51'3 5.9
2018-Aug-14 05:30N 53°19' E 004°54'3 5.7
2018-Aug-14 05:00N 53°22' E 004°57'4 7.4
2018-Aug-14 04:30N 53°25' E 004°60'4 8.3
2018-Aug-14 03:59N 53°29' E 005°02'7 7.2
2018-Aug-14 03:01N 53°34' E 005°09'3 8.6
2018-Aug-14 02:37N 53°36' E 005°14'1 8.4
2018-Aug-14 02:29N 53°36' E 005°16'6 8.1
2018-Aug-14 01:41N 53°38' E 005°26'114 8.0
2018-Aug-13 11:30N 53°58' E 008°36'4 6.1
2018-Aug-13 10:53N 53°56' E 008°40'2 6.0
2018-Aug-13 10:30N 53°54' E 008°42'3 5.9
2018-Aug-13 10:00N 53°51' E 008°45'4 7.6
2018-Aug-13 09:30N 53°51' E 008°52'5 9.7
2018-Aug-13 09:00N 53°51' E 008°60'510.6
2018-Aug-13 08:31N 53°53' E 009°08'1 1.0
2018-Aug-13 08:00N 53°54' E 009°09'1 2.3
2018-Aug-13 07:31N 53°54' E 009°10'4 8.6
2018-Aug-13 07:00N 53°58' E 009°15'7 8.2
2018-Aug-13 06:07N 54°05' E 009°19'3 8.2
2018-Aug-13 05:47N 54°07' E 009°20'2 7.9
2018-Aug-13 05:31N 54°09' E 009°22'4 8.3
2018-Aug-13 05:00N 54°11' E 009°28'4 8.2
2018-Aug-13 04:30N 54°13' E 009°35'4 8.0
2018-Aug-13 04:00N 54°16' E 009°38'4 7.6
2018-Aug-13 03:29N 54°19' E 009°43'4 8.1
2018-Aug-13 02:58N 54°22' E 009°48'23 6.2
2018-Aug-12 23:18N 54°31' E 010°24'3 8.5
2018-Aug-12 22:58N 54°31' E 010°28'4 8.5
2018-Aug-12 22:30N 54°31' E 010°35'4 8.4
2018-Aug-12 22:00N 54°31' E 010°43'4 8.1
2018-Aug-12 21:30N 54°32' E 010°49'4 7.5
2018-Aug-12 21:00N 54°32' E 010°56'4 7.2
2018-Aug-12 20:30N 54°33' E 011°02'5 7.9
2018-Aug-12 19:49N 54°32' E 011°11'11 8.3
2018-Aug-12 18:30N 54°26' E 011°27'4 7.7
2018-Aug-12 18:00N 54°24' E 011°33'4 7.9
2018-Aug-12 17:30N 54°22' E 011°38'8 8.0
2018-Aug-12 16:26N 54°17' E 011°50'3 7.9
2018-Aug-12 16:00N 54°15' E 011°55'4 7.9
2018-Aug-12 15:29N 54°13' E 012°01'4 7.0
2018-Aug-12 14:53N 54°10' E 012°06'2 6.1
2018-Aug-12 14:30N 54°08' E 012°06'2 4.7
2018-Aug-12 14:00N 54°06' E 012°07'0 0.3
2018-Aug-12 13:29N 54°06' E 012°08'0 0.7
2018-Aug-12 12:59N 54°06' E 012°07'2 4.6
2018-Aug-12 12:29N 54°08' E 012°06'2 3.8
2018-Aug-12 11:59N 54°10' E 012°06'2 3.4
2018-Aug-12 11:16N 54°12' E 012°05'1 2.9
2018-Aug-12 10:45N 54°11' E 012°06'1 2.9
2018-Aug-12 10:30N 54°10' E 012°06'2 3.2
2018-Aug-12 10:00N 54°08' E 012°06'2 3.5
2018-Aug-12 09:30N 54°07' E 012°06'2 3.0
2018-Aug-12 09:00N 54°06' E 012°08'0 0.0
2018-Aug-12 08:30N 54°06' E 012°08'0 0.1
2018-Aug-12 07:56N 54°06' E 012°08'0 0.0
2018-Aug-12 07:23N 54°06' E 012°08'0 0.0
2018-Aug-12 05:29N 54°06' E 012°08'0 0.0
2018-Aug-12 04:59N 54°06' E 012°08'0 0.0
2018-Aug-12 04:26N 54°06' E 012°08'0 0.0
2018-Aug-12 03:59N 54°06' E 012°08'0 0.0
2018-Aug-12 01:59N 54°06' E 012°08'0 0.0
2018-Aug-12 00:20N 54°06' E 012°08'0 0.0
2018-Aug-11 23:47N 54°06' E 012°08'0 0.0
2018-Aug-11 23:29N 54°06' E 012°08'0 0.0
2018-Aug-11 21:20N 54°06' E 012°08'0 0.3
2018-Aug-11 21:00N 54°06' E 012°08'1 2.3
2018-Aug-11 20:23N 54°07' E 012°06'1 3.1
2018-Aug-11 19:55N 54°08' E 012°06'2 3.9
2018-Aug-11 19:29N 54°10' E 012°06'1 1.8
2018-Aug-11 19:00N 54°11' E 012°06'2 3.0
2018-Aug-11 18:30N 54°09' E 012°06'2 3.5
2018-Aug-11 18:00N 54°07' E 012°06'2 3.4
2018-Aug-11 17:30N 54°06' E 012°07'1 1.0
2018-Aug-11 16:57N 54°06' E 012°08'0 0.1
2018-Aug-11 16:04N 54°06' E 012°08'3 4.0
2018-Aug-11 15:15N 54°09' E 012°06'1 3.9
2018-Aug-11 14:59N 54°10' E 012°06'2 4.4
2018-Aug-11 14:29N 54°12' E 012°05'2 4.5
2018-Aug-11 14:00N 54°10' E 012°06'4 2.4
2018-Aug-11 12:13N 54°06' E 012°08'0 0.6
2018-Aug-11 11:59N 54°06' E 012°08'3 5.6
2018-Aug-11 11:29N 54°08' E 012°06'2 4.8
2018-Aug-11 11:00N 54°10' E 012°06'1 1.1
2018-Aug-11 10:30N 54°11' E 012°06'2 3.7
2018-Aug-11 10:00N 54°09' E 012°06'2 3.9
2018-Aug-11 09:30N 54°07' E 012°06'2 0.7
2018-Aug-11 06:56N 54°06' E 012°08'0 0.0
2018-Aug-11 06:29N 54°06' E 012°08'0 0.0
2018-Aug-11 05:59N 54°06' E 012°08'0 0.0
2018-Aug-11 04:14N 54°06' E 012°08'0 0.0
2018-Aug-11 03:59N 54°06' E 012°08'0 0.0
2018-Aug-11 03:14N 54°06' E 012°08'0 0.0
2018-Aug-11 02:56N 54°06' E 012°08'0 0.0
2018-Aug-11 02:11N 54°06' E 012°08'0 0.0
2018-Aug-11 01:59N 54°06' E 012°08'0 0.0
2018-Aug-11 01:26N 54°06' E 012°08'0 0.0
2018-Aug-11 00:53N 54°06' E 012°08'0 0.0
2018-Aug-10 23:44N 54°06' E 012°08'0 0.0
2018-Aug-10 23:29N 54°06' E 012°08'0 0.0
2018-Aug-10 21:18N 54°06' E 012°08'0 1.1
2018-Aug-10 21:00N 54°06' E 012°07'2 4.0
2018-Aug-10 20:28N 54°08' E 012°06'2 4.4
2018-Aug-10 19:58N 54°10' E 012°06'2 3.6
2018-Aug-10 19:30N 54°12' E 012°06'1 1.5
2018-Aug-10 18:58N 54°11' E 012°06'2 3.7
2018-Aug-10 18:30N 54°09' E 012°06'2 3.6
2018-Aug-10 17:53N 54°07' E 012°06'1 3.1
2018-Aug-10 17:30N 54°06' E 012°07'1 0.1
2018-Aug-10 14:00N 54°06' E 012°08'1 2.4
2018-Aug-10 13:25N 54°07' E 012°06'2 3.8
2018-Aug-10 13:00N 54°08' E 012°06'1 2.9
2018-Aug-10 12:30N 54°10' E 012°06'1 0.7
2018-Aug-10 11:15N 54°10' E 012°06'1 3.6
2018-Aug-10 11:00N 54°11' E 012°05'1 1.1
2018-Aug-10 10:29N 54°11' E 012°06'2 4.0
2018-Aug-10 10:00N 54°09' E 012°06'2 4.4
2018-Aug-10 09:30N 54°07' E 012°06'1 2.8
2018-Aug-10 09:00N 54°06' E 012°08'0 0.6
2018-Aug-10 08:30N 54°06' E 012°08'0 0.1
2018-Aug-10 05:27N 54°06' E 012°08'0 0.0
2018-Aug-10 04:59N 54°06' E 012°08'0 0.0
2018-Aug-10 04:26N 54°06' E 012°08'0 0.0
2018-Aug-10 03:56N 54°06' E 012°08'0 0.0
2018-Aug-10 02:27N 54°06' E 012°08'0 0.0
2018-Aug-10 01:59N 54°06' E 012°08'0 0.0
2018-Aug-10 01:27N 54°06' E 012°08'0 0.0
2018-Aug-10 00:47N 54°06' E 012°08'0 0.0
2018-Aug-10 00:29N 54°06' E 012°08'0 0.0
2018-Aug-09 23:59N 54°06' E 012°08'0 0.0
2018-Aug-09 21:41N 54°06' E 012°08'0 0.0
2018-Aug-09 21:29N 54°06' E 012°08'0 0.1
2018-Aug-09 20:58N 54°06' E 012°08'2 4.3
2018-Aug-09 20:24N 54°08' E 012°06'2 5.9
2018-Aug-09 19:59N 54°10' E 012°06'2 4.2
2018-Aug-09 19:30N 54°12' E 012°06'1 2.0
2018-Aug-09 19:00N 54°11' E 012°05'2 4.0
2018-Aug-09 18:26N 54°09' E 012°06'2 3.8
2018-Aug-09 18:00N 54°07' E 012°06'1 2.8
2018-Aug-09 17:30N 54°06' E 012°07'1 1.1
2018-Aug-09 16:44N 54°06' E 012°08'0 0.0
2018-Aug-09 16:29N 54°06' E 012°08'0 0.0
2018-Aug-09 15:59N 54°06' E 012°08'0 0.0
2018-Aug-09 15:29N 54°06' E 012°08'0 0.0
2018-Aug-09 13:00N 54°06' E 012°08'2 3.7
2018-Aug-09 12:30N 54°07' E 012°06'2 4.0
2018-Aug-09 12:01N 54°09' E 012°06'2 4.0
2018-Aug-09 11:30N 54°11' E 012°05'2 3.2
2018-Aug-09 10:59N 54°12' E 012°03'2 3.5
2018-Aug-09 10:28N 54°11' E 012°06'2 4.6
2018-Aug-09 09:59N 54°09' E 012°06'3 2.3
2018-Aug-09 08:30N 54°06' E 012°08'0 0.0
2018-Aug-09 08:00N 54°06' E 012°08'0 0.0
2018-Aug-09 07:30N 54°06' E 012°08'0 0.0
2018-Aug-09 07:00N 54°06' E 012°08'0 0.0
2018-Aug-09 06:30N 54°06' E 012°08'0 0.0
2018-Aug-09 04:45N 54°06' E 012°08'0 0.0
2018-Aug-09 04:27N 54°06' E 012°08'0 0.0
2018-Aug-09 03:12N 54°06' E 012°08'0 0.0
2018-Aug-09 02:57N 54°06' E 012°08'0 0.0
2018-Aug-09 02:27N 54°06' E 012°08'0 0.0
2018-Aug-09 02:00N 54°06' E 012°08'0 0.0
2018-Aug-09 01:30N 54°06' E 012°08'0 0.0
2018-Aug-09 00:57N 54°06' E 012°08'0 0.0
2018-Aug-09 00:27N 54°06' E 012°08'0 0.0
2018-Aug-08 23:54N 54°06' E 012°08'0 0.0
2018-Aug-08 23:27N 54°06' E 012°08'0 0.0
2018-Aug-08 22:27N 54°06' E 012°08'0 0.0
2018-Aug-08 22:00N 54°06' E 012°08'0 0.0
2018-Aug-08 21:12N 54°06' E 012°08'0 0.0
2018-Aug-08 20:45N 54°06' E 012°08'0 0.0
2018-Aug-08 20:30N 54°06' E 012°08'0 0.0
2018-Aug-08 19:57N 54°06' E 012°08'0 0.0
2018-Aug-08 19:24N 54°06' E 012°08'0 0.0
2018-Aug-08 19:00N 54°06' E 012°08'0 0.0
2018-Aug-08 16:30N 54°06' E 012°08'0 0.0
2018-Aug-08 15:48N 54°06' E 012°08'0 0.0
2018-Aug-08 15:30N 54°06' E 012°08'0 0.0
2018-Aug-08 14:54N 54°06' E 012°08'2 3.4
2018-Aug-08 14:23N 54°07' E 012°06'3 5.9
2018-Aug-08 13:55N 54°10' E 012°06'2 5.8
2018-Aug-08 13:30N 54°12' E 012°04'3 6.4
2018-Aug-08 12:58N 54°14' E 011°59'3 6.9
2018-Aug-08 12:30N 54°15' E 011°54'4 7.2
2018-Aug-08 12:00N 54°17' E 011°49'4 7.1
2018-Aug-08 11:24N 54°19' E 011°43'3 6.9
2018-Aug-08 11:00N 54°21' E 011°40'15 6.1
2018-Aug-08 08:37N 54°29' E 011°19'1 5.2
2018-Aug-08 08:28N 54°30' E 011°18'3 7.0
2018-Aug-08 08:00N 54°32' E 011°13'3 5.6
2018-Aug-08 07:30N 54°32' E 011°08'3 5.5
2018-Aug-08 07:00N 54°33' E 011°04'4 7.3
2018-Aug-08 06:30N 54°34' E 010°58'3 6.5
2018-Aug-08 06:00N 54°34' E 010°52'4 7.2
2018-Aug-08 05:30N 54°34' E 010°46'4 7.0
2018-Aug-08 05:00N 54°33' E 010°40'3 6.5
2018-Aug-08 04:30N 54°33' E 010°34'3 6.7
2018-Aug-08 04:00N 54°32' E 010°29'3 6.9
2018-Aug-08 03:30N 54°30' E 010°23'3 6.6
2018-Aug-08 03:00N 54°29' E 010°18'3 6.6
2018-Aug-08 02:30N 54°26' E 010°15'3 6.7
2018-Aug-08 01:59N 54°23' E 010°12'2 4.9
2018-Aug-08 01:29N 54°22' E 010°08'0 0.0
2018-Aug-08 01:00N 54°22' E 010°08'3 5.3
2018-Aug-08 00:22N 54°22' E 010°03'3 8.1
2018-Aug-07 23:59N 54°21' E 009°58'4 8.3
2018-Aug-07 23:29N 54°22' E 009°51'4 8.1
2018-Aug-07 23:00N 54°20' E 009°45'4 7.8
2018-Aug-07 22:30N 54°17' E 009°40'4 7.7
2018-Aug-07 22:00N 54°14' E 009°37'4 8.1
2018-Aug-07 21:30N 54°11' E 009°32'4 8.4
2018-Aug-07 21:00N 54°10' E 009°25'6 7.6
2018-Aug-07 20:10N 54°04' E 009°19'1 6.4
2018-Aug-07 19:57N 54°03' E 009°18'4 8.2
2018-Aug-07 19:30N 53°59' E 009°17'4 8.1
2018-Aug-07 19:01N 53°56' E 009°13'4 7.4
2018-Aug-07 18:30N 53°54' E 009°09'1 1.2
2018-Aug-07 18:00N 53°53' E 009°08'4 7.8
2018-Aug-07 17:30N 53°52' E 009°02'4 7.5
2018-Aug-07 17:01N 53°51' E 008°56'5 7.3
2018-Aug-07 16:24N 53°50' E 008°48'39 5.1
2018-Aug-07 08:44N 53°56' E 007°42'2 5.6
2018-Aug-07 08:21N 53°55' E 007°39'2 5.8
2018-Aug-07 07:58N 53°54' E 007°35'4 5.8
2018-Aug-07 07:20N 53°53' E 007°29'2 6.0
2018-Aug-07 06:59N 53°53' E 007°25'3 6.3
2018-Aug-07 06:30N 53°52' E 007°21'3 6.4
2018-Aug-07 06:00N 53°51' E 007°15'4 6.7
2018-Aug-07 05:24N 53°50' E 007°09'3 6.9
2018-Aug-07 05:00N 53°50' E 007°04'4 6.9
2018-Aug-07 04:25N 53°49' E 006°58'27 7.1
2018-Aug-07 00:37N 53°42' E 006°13'3 6.6
2018-Aug-07 00:13N 53°42' E 006°09'1 6.5
2018-Aug-07 00:00N 53°41' E 006°06'5 6.3
2018-Aug-06 23:12N 53°40' E 005°58'1 5.9
2018-Aug-06 23:00N 53°39' E 005°56'3 5.8
2018-Aug-06 22:30N 53°38' E 005°52'3 5.6
2018-Aug-06 22:00N 53°38' E 005°47'3 5.1
2018-Aug-06 21:29N 53°37' E 005°43'2 5.0
2018-Aug-06 21:00N 53°36' E 005°39'2 4.9
2018-Aug-06 20:30N 53°35' E 005°35'2 4.9
2018-Aug-06 20:00N 53°34' E 005°32'2 4.8
2018-Aug-06 19:30N 53°33' E 005°28'2 4.8
2018-Aug-06 19:00N 53°32' E 005°24'2 4.9
2018-Aug-06 18:30N 53°32' E 005°20'3 5.1
2018-Aug-06 18:00N 53°30' E 005°16'3 5.3
2018-Aug-06 17:30N 53°29' E 005°12'3 5.6
2018-Aug-06 17:00N 53°28' E 005°09'3 5.9
2018-Aug-06 16:30N 53°26' E 005°05'4 5.9
2018-Aug-06 15:53N 53°23' E 005°01'2 5.9
2018-Aug-06 15:30N 53°21' E 004°58'3 6.8
2018-Aug-06 14:59N 53°19' E 005°03'4 7.4
2018-Aug-06 14:30N 53°19' E 005°09'3 6.5
2018-Aug-06 14:00N 53°16' E 005°10'3 6.4
2018-Aug-06 13:30N 53°14' E 005°14'3 6.2
2018-Aug-06 13:00N 53°12' E 005°18'3 6.8
2018-Aug-06 12:30N 53°11' E 005°23'1 1.5
2018-Aug-06 11:58N 53°10' E 005°25'0 0.0
2018-Aug-06 11:28N 53°10' E 005°25'0 0.0
2018-Aug-06 10:58N 53°10' E 005°25'0 0.0
2018-Aug-06 10:28N 53°10' E 005°25'0 0.0
2018-Aug-06 09:58N 53°10' E 005°25'0 0.0
2018-Aug-06 09:28N 53°10' E 005°25'0 0.0
2018-Aug-06 08:58N 53°10' E 005°25'0 0.0
2018-Aug-06 08:28N 53°10' E 005°25'0 0.0
2018-Aug-06 07:58N 53°10' E 005°25'0 0.0
2018-Aug-06 07:28N 53°10' E 005°25'0 0.0
2018-Aug-06 06:58N 53°10' E 005°25'0 0.0
2018-Aug-06 06:28N 53°10' E 005°25'0 0.0
2018-Aug-06 05:58N 53°10' E 005°25'0 0.0
2018-Aug-06 05:28N 53°10' E 005°25'0 0.0
2018-Aug-06 04:55N 53°10' E 005°25'0 0.0
2018-Aug-06 04:28N 53°10' E 005°25'0 0.0
2018-Aug-06 03:55N 53°10' E 005°25'0 0.0
2018-Aug-06 03:25N 53°10' E 005°25'0 0.0
2018-Aug-06 02:58N 53°10' E 005°25'0 0.0
2018-Aug-06 02:28N 53°10' E 005°25'0 0.0
2018-Aug-06 01:58N 53°10' E 005°25'0 0.0
2018-Aug-06 01:28N 53°10' E 005°25'0 0.0
2018-Aug-06 00:55N 53°10' E 005°25'0 0.0
2018-Aug-06 00:25N 53°10' E 005°25'0 0.0
2018-Aug-05 23:58N 53°10' E 005°25'0 0.0
2018-Aug-05 23:28N 53°10' E 005°25'0 0.0
2018-Aug-05 22:58N 53°10' E 005°25'0 0.0
2018-Aug-05 22:28N 53°10' E 005°25'0 0.0
2018-Aug-05 21:58N 53°10' E 005°25'0 0.0
2018-Aug-05 21:28N 53°10' E 005°25'0 0.0
2018-Aug-05 20:58N 53°10' E 005°25'0 0.0
2018-Aug-05 20:28N 53°10' E 005°25'0 0.0
2018-Aug-05 19:58N 53°10' E 005°25'0 0.0
2018-Aug-05 19:28N 53°10' E 005°25'0 0.0
2018-Aug-05 18:58N 53°10' E 005°25'0 0.0
2018-Aug-05 18:28N 53°10' E 005°25'0 0.0
2018-Aug-05 17:58N 53°10' E 005°25'0 0.0
2018-Aug-05 17:28N 53°10' E 005°25'0 0.0
2018-Aug-05 16:58N 53°10' E 005°25'0 0.0
2018-Aug-05 16:22N 53°10' E 005°25'0 0.0
2018-Aug-05 15:58N 53°10' E 005°25'0 0.0
2018-Aug-05 15:28N 53°10' E 005°25'0 0.0
2018-Aug-05 14:58N 53°10' E 005°25'0 0.0
2018-Aug-05 14:28N 53°10' E 005°25'0 0.0
2018-Aug-05 13:28N 53°10' E 005°25'0 0.0
2018-Aug-05 12:58N 53°10' E 005°25'0 0.0
2018-Aug-05 12:28N 53°10' E 005°25'0 0.0
2018-Aug-05 11:58N 53°10' E 005°25'0 0.0
2018-Aug-05 11:28N 53°10' E 005°25'0 0.0
2018-Aug-05 10:58N 53°10' E 005°25'0 0.0
2018-Aug-05 10:28N 53°10' E 005°25'0 0.0
2018-Aug-05 09:58N 53°10' E 005°25'0 0.0
2018-Aug-05 09:28N 53°10' E 005°25'0 0.0
2018-Aug-05 08:58N 53°10' E 005°25'0 0.0
2018-Aug-05 08:28N 53°10' E 005°25'0 0.0
2018-Aug-05 07:58N 53°10' E 005°25'0 0.0
2018-Aug-05 07:28N 53°10' E 005°25'0 0.0
2018-Aug-05 06:58N 53°10' E 005°25'0 0.0
2018-Aug-05 06:28N 53°10' E 005°25'0 0.0
2018-Aug-05 05:58N 53°10' E 005°25'0 0.0
2018-Aug-05 05:28N 53°10' E 005°25'0 0.0
2018-Aug-05 04:58N 53°10' E 005°25'0 0.0
2018-Aug-05 04:28N 53°10' E 005°25'0 0.0
2018-Aug-05 03:58N 53°10' E 005°25'0 0.0
2018-Aug-05 03:28N 53°10' E 005°25'0 0.0
2018-Aug-05 02:58N 53°10' E 005°25'0 0.0
2018-Aug-05 02:28N 53°10' E 005°25'0 0.0
2018-Aug-05 01:58N 53°10' E 005°25'0 0.0
2018-Aug-05 01:28N 53°10' E 005°25'0 0.0
2018-Aug-05 00:58N 53°10' E 005°25'0 0.0
2018-Aug-05 00:28N 53°10' E 005°25'0 0.0
2018-Aug-04 23:58N 53°10' E 005°25'0 0.0
2018-Aug-04 23:28N 53°10' E 005°25'0 0.0
2018-Aug-04 22:58N 53°10' E 005°25'0 0.0
2018-Aug-04 22:28N 53°10' E 005°25'0 0.0
2018-Aug-04 21:58N 53°10' E 005°25'0 0.0
2018-Aug-04 21:28N 53°10' E 005°25'0 0.0
2018-Aug-04 20:58N 53°10' E 005°25'0 0.0
2018-Aug-04 20:28N 53°10' E 005°25'0 0.0
2018-Aug-04 19:58N 53°10' E 005°25'0 0.0
2018-Aug-04 19:28N 53°10' E 005°25'0 0.0
2018-Aug-04 18:58N 53°10' E 005°25'0 0.0
2018-Aug-04 18:28N 53°10' E 005°25'0 0.0
2018-Aug-04 17:58N 53°10' E 005°25'0 0.0
2018-Aug-04 17:28N 53°10' E 005°25'0 0.0
2018-Aug-04 16:58N 53°10' E 005°25'0 0.0
2018-Aug-04 16:28N 53°10' E 005°25'0 0.0
2018-Aug-04 15:58N 53°10' E 005°25'0 0.0
2018-Aug-04 15:28N 53°10' E 005°25'0 0.0
2018-Aug-04 14:58N 53°10' E 005°25'0 0.0
2018-Aug-04 14:28N 53°10' E 005°25'0 0.0
2018-Aug-04 13:58N 53°10' E 005°25'0 0.0
2018-Aug-04 13:28N 53°10' E 005°25'0 0.0
2018-Aug-04 12:58N 53°10' E 005°25'0 0.0
2018-Aug-04 12:28N 53°10' E 005°25'0 0.0
2018-Aug-04 11:58N 53°10' E 005°25'0 0.0
2018-Aug-04 11:28N 53°10' E 005°25'0 0.0
2018-Aug-04 10:55N 53°10' E 005°25'0 0.0
2018-Aug-04 10:28N 53°10' E 005°25'0 0.0
2018-Aug-04 09:58N 53°10' E 005°25'0 0.0
2018-Aug-04 09:28N 53°10' E 005°25'0 0.0
2018-Aug-04 08:58N 53°10' E 005°25'0 0.0
2018-Aug-04 08:28N 53°10' E 005°25'0 0.0
2018-Aug-04 07:58N 53°10' E 005°25'0 0.0
2018-Aug-04 07:22N 53°10' E 005°25'0 0.0
2018-Aug-04 06:58N 53°10' E 005°25'  
Track history (hours):
 
Tides and Currents Weather Stations Pressure Air Temp Water Temp Dewpoint Dewpoint Depression Visibility Wind Speed Wind Dir Waves Ship Positions

Morgenster

Last reported at 2018-Aug-14 06:38 UTC. Time now 2018-Aug-14 07:05 UTC.
Position N 53°14' E 004°46'.

Length 38 m; draft 2.4 m.

Type: Sailing vessel. MMSI: 245136000.

Date/timePositionNaut miles runAvg speedWind from/ knotsBaromVisibWave heightAir tempDewpointWater temp
2018-Aug-14 06:38N 53°14' E 004°46'1 6.6
2018-Aug-14 06:29N 53°15' E 004°47'3 6.4
2018-Aug-14 06:00N 53°17' E 004°51'3 5.9
2018-Aug-14 05:30N 53°19' E 004°54'3 5.7
2018-Aug-14 05:00N 53°22' E 004°57'4 7.4
2018-Aug-14 04:30N 53°25' E 004°60'4 8.3
2018-Aug-14 03:59N 53°29' E 005°02'7 7.2
2018-Aug-14 03:01N 53°34' E 005°09'3 8.6
2018-Aug-14 02:37N 53°36' E 005°14'1 8.4
2018-Aug-14 02:29N 53°36' E 005°16'6 8.1
2018-Aug-14 01:41N 53°38' E 005°26'114 8.0
2018-Aug-13 11:30N 53°58' E 008°36'4 6.1
2018-Aug-13 10:53N 53°56' E 008°40'2 6.0
2018-Aug-13 10:30N 53°54' E 008°42'3 5.9
2018-Aug-13 10:00N 53°51' E 008°45'4 7.6
2018-Aug-13 09:30N 53°51' E 008°52'5 9.7
2018-Aug-13 09:00N 53°51' E 008°60'510.6
2018-Aug-13 08:31N 53°53' E 009°08'1 1.0
2018-Aug-13 08:00N 53°54' E 009°09'1 2.3
2018-Aug-13 07:31N 53°54' E 009°10'4 8.6
2018-Aug-13 07:00N 53°58' E 009°15'7 8.2
2018-Aug-13 06:07N 54°05' E 009°19'3 8.2
2018-Aug-13 05:47N 54°07' E 009°20'2 7.9
2018-Aug-13 05:31N 54°09' E 009°22'4 8.3
2018-Aug-13 05:00N 54°11' E 009°28'4 8.2
2018-Aug-13 04:30N 54°13' E 009°35'4 8.0
2018-Aug-13 04:00N 54°16' E 009°38'4 7.6
2018-Aug-13 03:29N 54°19' E 009°43'4 8.1
2018-Aug-13 02:58N 54°22' E 009°48'23 6.2
2018-Aug-12 23:18N 54°31' E 010°24'3 8.5
2018-Aug-12 22:58N 54°31' E 010°28'4 8.5
2018-Aug-12 22:30N 54°31' E 010°35'4 8.4
2018-Aug-12 22:00N 54°31' E 010°43'4 8.1
2018-Aug-12 21:30N 54°32' E 010°49'4 7.5
2018-Aug-12 21:00N 54°32' E 010°56'4 7.2
2018-Aug-12 20:30N 54°33' E 011°02'5 7.9
2018-Aug-12 19:49N 54°32' E 011°11'11 8.3
2018-Aug-12 18:30N 54°26' E 011°27'4 7.7
2018-Aug-12 18:00N 54°24' E 011°33'4 7.9
2018-Aug-12 17:30N 54°22' E 011°38'8 8.0
2018-Aug-12 16:26N 54°17' E 011°50'3 7.9
2018-Aug-12 16:00N 54°15' E 011°55'4 7.9
2018-Aug-12 15:29N 54°13' E 012°01'4 7.0
2018-Aug-12 14:53N 54°10' E 012°06'2 6.1
2018-Aug-12 14:30N 54°08' E 012°06'2 4.7
2018-Aug-12 14:00N 54°06' E 012°07'0 0.3
2018-Aug-12 13:29N 54°06' E 012°08'0 0.7
2018-Aug-12 12:59N 54°06' E 012°07'2 4.6
2018-Aug-12 12:29N 54°08' E 012°06'2 3.8
2018-Aug-12 11:59N 54°10' E 012°06'2 3.4
2018-Aug-12 11:16N 54°12' E 012°05'1 2.9
2018-Aug-12 10:45N 54°11' E 012°06'1 2.9
2018-Aug-12 10:30N 54°10' E 012°06'2 3.2
2018-Aug-12 10:00N 54°08' E 012°06'2 3.5
2018-Aug-12 09:30N 54°07' E 012°06'2 3.0
2018-Aug-12 09:00N 54°06' E 012°08'0 0.0
2018-Aug-12 08:30N 54°06' E 012°08'0 0.1
2018-Aug-12 07:56N 54°06' E 012°08'0 0.0
2018-Aug-12 07:23N 54°06' E 012°08'0 0.0
2018-Aug-12 05:29N 54°06' E 012°08'0 0.0
2018-Aug-12 04:59N 54°06' E 012°08'0 0.0
2018-Aug-12 04:26N 54°06' E 012°08'0 0.0
2018-Aug-12 03:59N 54°06' E 012°08'0 0.0
2018-Aug-12 01:59N 54°06' E 012°08'0 0.0
2018-Aug-12 00:20N 54°06' E 012°08'0 0.0
2018-Aug-11 23:47N 54°06' E 012°08'0 0.0
2018-Aug-11 23:29N 54°06' E 012°08'0 0.0
2018-Aug-11 21:20N 54°06' E 012°08'0 0.3
2018-Aug-11 21:00N 54°06' E 012°08'1 2.3
2018-Aug-11 20:23N 54°07' E 012°06'1 3.1
2018-Aug-11 19:55N 54°08' E 012°06'2 3.9
2018-Aug-11 19:29N 54°10' E 012°06'1 1.8
2018-Aug-11 19:00N 54°11' E 012°06'2 3.0
2018-Aug-11 18:30N 54°09' E 012°06'2 3.5
2018-Aug-11 18:00N 54°07' E 012°06'2 3.4
2018-Aug-11 17:30N 54°06' E 012°07'1 1.0
2018-Aug-11 16:57N 54°06' E 012°08'0 0.1
2018-Aug-11 16:04N 54°06' E 012°08'3 4.0
2018-Aug-11 15:15N 54°09' E 012°06'1 3.9
2018-Aug-11 14:59N 54°10' E 012°06'2 4.4
2018-Aug-11 14:29N 54°12' E 012°05'2 4.5
2018-Aug-11 14:00N 54°10' E 012°06'4 2.4
2018-Aug-11 12:13N 54°06' E 012°08'0 0.6
2018-Aug-11 11:59N 54°06' E 012°08'3 5.6
2018-Aug-11 11:29N 54°08' E 012°06'2 4.8
2018-Aug-11 11:00N 54°10' E 012°06'1 1.1
2018-Aug-11 10:30N 54°11' E 012°06'2 3.7
2018-Aug-11 10:00N 54°09' E 012°06'2 3.9
2018-Aug-11 09:30N 54°07' E 012°06'2 0.7
2018-Aug-11 06:56N 54°06' E 012°08'0 0.0
2018-Aug-11 06:29N 54°06' E 012°08'0 0.0
2018-Aug-11 05:59N 54°06' E 012°08'0 0.0
2018-Aug-11 04:14N 54°06' E 012°08'0 0.0
2018-Aug-11 03:59N 54°06' E 012°08'0 0.0
2018-Aug-11 03:14N 54°06' E 012°08'0 0.0
2018-Aug-11 02:56N 54°06' E 012°08'0 0.0
2018-Aug-11 02:11N 54°06' E 012°08'0 0.0
2018-Aug-11 01:59N 54°06' E 012°08'0 0.0
2018-Aug-11 01:26N 54°06' E 012°08'0 0.0
2018-Aug-11 00:53N 54°06' E 012°08'0 0.0
2018-Aug-10 23:44N 54°06' E 012°08'0 0.0
2018-Aug-10 23:29N 54°06' E 012°08'0 0.0
2018-Aug-10 21:18N 54°06' E 012°08'0 1.1
2018-Aug-10 21:00N 54°06' E 012°07'2 4.0
2018-Aug-10 20:28N 54°08' E 012°06'2 4.4
2018-Aug-10 19:58N 54°10' E 012°06'2 3.6
2018-Aug-10 19:30N 54°12' E 012°06'1 1.5
2018-Aug-10 18:58N 54°11' E 012°06'2 3.7
2018-Aug-10 18:30N 54°09' E 012°06'2 3.6
2018-Aug-10 17:53N 54°07' E 012°06'1 3.1
2018-Aug-10 17:30N 54°06' E 012°07'1 0.1
2018-Aug-10 14:00N 54°06' E 012°08'1 2.4
2018-Aug-10 13:25N 54°07' E 012°06'2 3.8
2018-Aug-10 13:00N 54°08' E 012°06'1 2.9
2018-Aug-10 12:30N 54°10' E 012°06'1 0.7
2018-Aug-10 11:15N 54°10' E 012°06'1 3.6
2018-Aug-10 11:00N 54°11' E 012°05'1 1.1
2018-Aug-10 10:29N 54°11' E 012°06'2 4.0
2018-Aug-10 10:00N 54°09' E 012°06'2 4.4
2018-Aug-10 09:30N 54°07' E 012°06'1 2.8
2018-Aug-10 09:00N 54°06' E 012°08'0 0.6
2018-Aug-10 08:30N 54°06' E 012°08'0 0.1
2018-Aug-10 05:27N 54°06' E 012°08'0 0.0
2018-Aug-10 04:59N 54°06' E 012°08'0 0.0
2018-Aug-10 04:26N 54°06' E 012°08'0 0.0
2018-Aug-10 03:56N 54°06' E 012°08'0 0.0
2018-Aug-10 02:27N 54°06' E 012°08'0 0.0
2018-Aug-10 01:59N 54°06' E 012°08'0 0.0
2018-Aug-10 01:27N 54°06' E 012°08'0 0.0
2018-Aug-10 00:47N 54°06' E 012°08'0 0.0
2018-Aug-10 00:29N 54°06' E 012°08'0 0.0
2018-Aug-09 23:59N 54°06' E 012°08'0 0.0
2018-Aug-09 21:41N 54°06' E 012°08'0 0.0
2018-Aug-09 21:29N 54°06' E 012°08'0 0.1
2018-Aug-09 20:58N 54°06' E 012°08'2 4.3
2018-Aug-09 20:24N 54°08' E 012°06'2 5.9
2018-Aug-09 19:59N 54°10' E 012°06'2 4.2
2018-Aug-09 19:30N 54°12' E 012°06'1 2.0
2018-Aug-09 19:00N 54°11' E 012°05'2 4.0
2018-Aug-09 18:26N 54°09' E 012°06'2 3.8
2018-Aug-09 18:00N 54°07' E 012°06'1 2.8
2018-Aug-09 17:30N 54°06' E 012°07'1 1.1
2018-Aug-09 16:44N 54°06' E 012°08'0 0.0
2018-Aug-09 16:29N 54°06' E 012°08'0 0.0
2018-Aug-09 15:59N 54°06' E 012°08'0 0.0
2018-Aug-09 15:29N 54°06' E 012°08'0 0.0
2018-Aug-09 13:00N 54°06' E 012°08'2 3.7
2018-Aug-09 12:30N 54°07' E 012°06'2 4.0
2018-Aug-09 12:01N 54°09' E 012°06'2 4.0
2018-Aug-09 11:30N 54°11' E 012°05'2 3.2
2018-Aug-09 10:59N 54°12' E 012°03'2 3.5
2018-Aug-09 10:28N 54°11' E 012°06'2 4.6
2018-Aug-09 09:59N 54°09' E 012°06'3 2.3
2018-Aug-09 08:30N 54°06' E 012°08'0 0.0
2018-Aug-09 08:00N 54°06' E 012°08'0 0.0
2018-Aug-09 07:30N 54°06' E 012°08'0 0.0
2018-Aug-09 07:00N 54°06' E 012°08'0 0.0
2018-Aug-09 06:30N 54°06' E 012°08'0 0.0
2018-Aug-09 04:45N 54°06' E 012°08'0 0.0
2018-Aug-09 04:27N 54°06' E 012°08'0 0.0
2018-Aug-09 03:12N 54°06' E 012°08'0 0.0
2018-Aug-09 02:57N 54°06' E 012°08'0 0.0
2018-Aug-09 02:27N 54°06' E 012°08'0 0.0
2018-Aug-09 02:00N 54°06' E 012°08'0 0.0
2018-Aug-09 01:30N 54°06' E 012°08'0 0.0
2018-Aug-09 00:57N 54°06' E 012°08'0 0.0
2018-Aug-09 00:27N 54°06' E 012°08'0 0.0
2018-Aug-08 23:54N 54°06' E 012°08'0 0.0
2018-Aug-08 23:27N 54°06' E 012°08'0 0.0
2018-Aug-08 22:27N 54°06' E 012°08'0 0.0
2018-Aug-08 22:00N 54°06' E 012°08'0 0.0
2018-Aug-08 21:12N 54°06' E 012°08'0 0.0
2018-Aug-08 20:45N 54°06' E 012°08'0 0.0
2018-Aug-08 20:30N 54°06' E 012°08'0 0.0
2018-Aug-08 19:57N 54°06' E 012°08'0 0.0
2018-Aug-08 19:24N 54°06' E 012°08'0 0.0
2018-Aug-08 19:00N 54°06' E 012°08'0 0.0
2018-Aug-08 16:30N 54°06' E 012°08'0 0.0
2018-Aug-08 15:48N 54°06' E 012°08'0 0.0
2018-Aug-08 15:30N 54°06' E 012°08'0 0.0
2018-Aug-08 14:54N 54°06' E 012°08'2 3.4
2018-Aug-08 14:23N 54°07' E 012°06'3 5.9
2018-Aug-08 13:55N 54°10' E 012°06'2 5.8
2018-Aug-08 13:30N 54°12' E 012°04'3 6.4
2018-Aug-08 12:58N 54°14' E 011°59'3 6.9
2018-Aug-08 12:30N 54°15' E 011°54'4 7.2
2018-Aug-08 12:00N 54°17' E 011°49'4 7.1
2018-Aug-08 11:24N 54°19' E 011°43'3 6.9
2018-Aug-08 11:00N 54°21' E 011°40'15 6.1
2018-Aug-08 08:37N 54°29' E 011°19'1 5.2
2018-Aug-08 08:28N 54°30' E 011°18'3 7.0
2018-Aug-08 08:00N 54°32' E 011°13'3 5.6
2018-Aug-08 07:30N 54°32' E 011°08'3 5.5
2018-Aug-08 07:00N 54°33' E 011°04'4 7.3
2018-Aug-08 06:30N 54°34' E 010°58'3 6.5
2018-Aug-08 06:00N 54°34' E 010°52'4 7.2
2018-Aug-08 05:30N 54°34' E 010°46'4 7.0
2018-Aug-08 05:00N 54°33' E 010°40'3 6.5
2018-Aug-08 04:30N 54°33' E 010°34'3 6.7
2018-Aug-08 04:00N 54°32' E 010°29'3 6.9
2018-Aug-08 03:30N 54°30' E 010°23'3 6.6
2018-Aug-08 03:00N 54°29' E 010°18'3 6.6
2018-Aug-08 02:30N 54°26' E 010°15'3 6.7
2018-Aug-08 01:59N 54°23' E 010°12'2 4.9
2018-Aug-08 01:29N 54°22' E 010°08'0 0.0
2018-Aug-08 01:00N 54°22' E 010°08'3 5.3
2018-Aug-08 00:22N 54°22' E 010°03'3 8.1
2018-Aug-07 23:59N 54°21' E 009°58'4 8.3
2018-Aug-07 23:29N 54°22' E 009°51'4 8.1
2018-Aug-07 23:00N 54°20' E 009°45'4 7.8
2018-Aug-07 22:30N 54°17' E 009°40'4 7.7
2018-Aug-07 22:00N 54°14' E 009°37'4 8.1
2018-Aug-07 21:30N 54°11' E 009°32'4 8.4
2018-Aug-07 21:00N 54°10' E 009°25'6 7.6
2018-Aug-07 20:10N 54°04' E 009°19'1 6.4
2018-Aug-07 19:57N 54°03' E 009°18'4 8.2
2018-Aug-07 19:30N 53°59' E 009°17'4 8.1
2018-Aug-07 19:01N 53°56' E 009°13'4 7.4
2018-Aug-07 18:30N 53°54' E 009°09'1 1.2
2018-Aug-07 18:00N 53°53' E 009°08'4 7.8
2018-Aug-07 17:30N 53°52' E 009°02'4 7.5
2018-Aug-07 17:01N 53°51' E 008°56'5 7.3
2018-Aug-07 16:24N 53°50' E 008°48'39 5.1
2018-Aug-07 08:44N 53°56' E 007°42'2 5.6
2018-Aug-07 08:21N 53°55' E 007°39'2 5.8
2018-Aug-07 07:58N 53°54' E 007°35'4 5.8
2018-Aug-07 07:20N 53°53' E 007°29'2 6.0
2018-Aug-07 06:59N 53°53' E 007°25'3 6.3
2018-Aug-07 06:30N 53°52' E 007°21'3 6.4
2018-Aug-07 06:00N 53°51' E 007°15'4 6.7
2018-Aug-07 05:24N 53°50' E 007°09'3 6.9
2018-Aug-07 05:00N 53°50' E 007°04'4 6.9
2018-Aug-07 04:25N 53°49' E 006°58'27 7.1
2018-Aug-07 00:37N 53°42' E 006°13'3 6.6
2018-Aug-07 00:13N 53°42' E 006°09'1 6.5
2018-Aug-07 00:00N 53°41' E 006°06'5 6.3
2018-Aug-06 23:12N 53°40' E 005°58'1 5.9
2018-Aug-06 23:00N 53°39' E 005°56'3 5.8
2018-Aug-06 22:30N 53°38' E 005°52'3 5.6
2018-Aug-06 22:00N 53°38' E 005°47'3 5.1
2018-Aug-06 21:29N 53°37' E 005°43'2 5.0
2018-Aug-06 21:00N 53°36' E 005°39'2 4.9
2018-Aug-06 20:30N 53°35' E 005°35'2 4.9
2018-Aug-06 20:00N 53°34' E 005°32'2 4.8
2018-Aug-06 19:30N 53°33' E 005°28'2 4.8
2018-Aug-06 19:00N 53°32' E 005°24'2 4.9
2018-Aug-06 18:30N 53°32' E 005°20'3 5.1
2018-Aug-06 18:00N 53°30' E 005°16'3 5.3
2018-Aug-06 17:30N 53°29' E 005°12'3 5.6
2018-Aug-06 17:00N 53°28' E 005°09'3 5.9
2018-Aug-06 16:30N 53°26' E 005°05'4 5.9
2018-Aug-06 15:53N 53°23' E 005°01'2 5.9
2018-Aug-06 15:30N 53°21' E 004°58'3 6.8
2018-Aug-06 14:59N 53°19' E 005°03'4 7.4
2018-Aug-06 14:30N 53°19' E 005°09'3 6.5
2018-Aug-06 14:00N 53°16' E 005°10'3 6.4
2018-Aug-06 13:30N 53°14' E 005°14'3 6.2
2018-Aug-06 13:00N 53°12' E 005°18'3 6.8
2018-Aug-06 12:30N 53°11' E 005°23'1 1.5
2018-Aug-06 11:58N 53°10' E 005°25'0 0.0
2018-Aug-06 11:28N 53°10' E 005°25'0 0.0
2018-Aug-06 10:58N 53°10' E 005°25'0 0.0
2018-Aug-06 10:28N 53°10' E 005°25'0 0.0
2018-Aug-06 09:58N 53°10' E 005°25'0 0.0
2018-Aug-06 09:28N 53°10' E 005°25'0 0.0
2018-Aug-06 08:58N 53°10' E 005°25'0 0.0
2018-Aug-06 08:28N 53°10' E 005°25'0 0.0
2018-Aug-06 07:58N 53°10' E 005°25'0 0.0
2018-Aug-06 07:28N 53°10' E 005°25'0 0.0
2018-Aug-06 06:58N 53°10' E 005°25'0 0.0
2018-Aug-06 06:28N 53°10' E 005°25'0 0.0
2018-Aug-06 05:58N 53°10' E 005°25'0 0.0
2018-Aug-06 05:28N 53°10' E 005°25'0 0.0
2018-Aug-06 04:55N 53°10' E 005°25'0 0.0
2018-Aug-06 04:28N 53°10' E 005°25'0 0.0
2018-Aug-06 03:55N 53°10' E 005°25'0 0.0
2018-Aug-06 03:25N 53°10' E 005°25'0 0.0
2018-Aug-06 02:58N 53°10' E 005°25'0 0.0
2018-Aug-06 02:28N 53°10' E 005°25'0 0.0
2018-Aug-06 01:58N 53°10' E 005°25'0 0.0
2018-Aug-06 01:28N 53°10' E 005°25'0 0.0
2018-Aug-06 00:55N 53°10' E 005°25'0 0.0
2018-Aug-06 00:25N 53°10' E 005°25'0 0.0
2018-Aug-05 23:58N 53°10' E 005°25'0 0.0
2018-Aug-05 23:28N 53°10' E 005°25'0 0.0
2018-Aug-05 22:58N 53°10' E 005°25'0 0.0
2018-Aug-05 22:28N 53°10' E 005°25'0 0.0
2018-Aug-05 21:58N 53°10' E 005°25'0 0.0
2018-Aug-05 21:28N 53°10' E 005°25'0 0.0
2018-Aug-05 20:58N 53°10' E 005°25'0 0.0
2018-Aug-05 20:28N 53°10' E 005°25'0 0.0
2018-Aug-05 19:58N 53°10' E 005°25'0 0.0
2018-Aug-05 19:28N 53°10' E 005°25'0 0.0
2018-Aug-05 18:58N 53°10' E 005°25'0 0.0
2018-Aug-05 18:28N 53°10' E 005°25'0 0.0
2018-Aug-05 17:58N 53°10' E 005°25'0 0.0
2018-Aug-05 17:28N 53°10' E 005°25'0 0.0
2018-Aug-05 16:58N 53°10' E 005°25'0 0.0
2018-Aug-05 16:22N 53°10' E 005°25'0 0.0
2018-Aug-05 15:58N 53°10' E 005°25'0 0.0
2018-Aug-05 15:28N 53°10' E 005°25'0 0.0
2018-Aug-05 14:58N 53°10' E 005°25'0 0.0
2018-Aug-05 14:28N 53°10' E 005°25'0 0.0
2018-Aug-05 13:28N 53°10' E 005°25'0 0.0
2018-Aug-05 12:58N 53°10' E 005°25'0 0.0
2018-Aug-05 12:28N 53°10' E 005°25'0 0.0
2018-Aug-05 11:58N 53°10' E 005°25'0 0.0
2018-Aug-05 11:28N 53°10' E 005°25'0 0.0
2018-Aug-05 10:58N 53°10' E 005°25'0 0.0
2018-Aug-05 10:28N 53°10' E 005°25'0 0.0
2018-Aug-05 09:58N 53°10' E 005°25'0 0.0
2018-Aug-05 09:28N 53°10' E 005°25'0 0.0
2018-Aug-05 08:58N 53°10' E 005°25'0 0.0
2018-Aug-05 08:28N 53°10' E 005°25'0 0.0
2018-Aug-05 07:58N 53°10' E 005°25'0 0.0
2018-Aug-05 07:28N 53°10' E 005°25'0 0.0
2018-Aug-05 06:58N 53°10' E 005°25'0 0.0
2018-Aug-05 06:28N 53°10' E 005°25'0 0.0
2018-Aug-05 05:58N 53°10' E 005°25'0 0.0
2018-Aug-05 05:28N 53°10' E 005°25'0 0.0
2018-Aug-05 04:58N 53°10' E 005°25'0 0.0
2018-Aug-05 04:28N 53°10' E 005°25'0 0.0
2018-Aug-05 03:58N 53°10' E 005°25'0 0.0
2018-Aug-05 03:28N 53°10' E 005°25'0 0.0
2018-Aug-05 02:58N 53°10' E 005°25'0 0.0
2018-Aug-05 02:28N 53°10' E 005°25'0 0.0
2018-Aug-05 01:58N 53°10' E 005°25'0 0.0
2018-Aug-05 01:28N 53°10' E 005°25'0 0.0
2018-Aug-05 00:58N 53°10' E 005°25'0 0.0
2018-Aug-05 00:28N 53°10' E 005°25'0 0.0
2018-Aug-04 23:58N 53°10' E 005°25'0 0.0
2018-Aug-04 23:28N 53°10' E 005°25'0 0.0
2018-Aug-04 22:58N 53°10' E 005°25'0 0.0
2018-Aug-04 22:28N 53°10' E 005°25'0 0.0
2018-Aug-04 21:58N 53°10' E 005°25'0 0.0
2018-Aug-04 21:28N 53°10' E 005°25'0 0.0
2018-Aug-04 20:58N 53°10' E 005°25'0 0.0
2018-Aug-04 20:28N 53°10' E 005°25'0 0.0
2018-Aug-04 19:58N 53°10' E 005°25'0 0.0
2018-Aug-04 19:28N 53°10' E 005°25'0 0.0
2018-Aug-04 18:58N 53°10' E 005°25'0 0.0
2018-Aug-04 18:28N 53°10' E 005°25'0 0.0
2018-Aug-04 17:58N 53°10' E 005°25'0 0.0
2018-Aug-04 17:28N 53°10' E 005°25'0 0.0
2018-Aug-04 16:58N 53°10' E 005°25'0 0.0
2018-Aug-04 16:28N 53°10' E 005°25'0 0.0
2018-Aug-04 15:58N 53°10' E 005°25'0 0.0
2018-Aug-04 15:28N 53°10' E 005°25'0 0.0
2018-Aug-04 14:58N 53°10' E 005°25'0 0.0
2018-Aug-04 14:28N 53°10' E 005°25'0 0.0
2018-Aug-04 13:58N 53°10' E 005°25'0 0.0
2018-Aug-04 13:28N 53°10' E 005°25'0 0.0
2018-Aug-04 12:58N 53°10' E 005°25'0 0.0
2018-Aug-04 12:28N 53°10' E 005°25'0 0.0
2018-Aug-04 11:58N 53°10' E 005°25'0 0.0
2018-Aug-04 11:28N 53°10' E 005°25'0 0.0
2018-Aug-04 10:55N 53°10' E 005°25'0 0.0
2018-Aug-04 10:28N 53°10' E 005°25'0 0.0
2018-Aug-04 09:58N 53°10' E 005°25'0 0.0
2018-Aug-04 09:28N 53°10' E 005°25'0 0.0
2018-Aug-04 08:58N 53°10' E 005°25'0 0.0
2018-Aug-04 08:28N 53°10' E 005°25'0 0.0
2018-Aug-04 07:58N 53°10' E 005°25'0 0.0
2018-Aug-04 07:22N 53°10' E 005°25'0 0.0
2018-Aug-04 06:58N 53°10' E 005°25'  

Dump ship's entire track history